createdAt,value
2023-10-28T00:03:25.985Z,3.08
2023-10-28T00:08:28.010Z,5.60
2023-10-28T00:13:31.706Z,1.33
2023-10-28T00:18:34.797Z,2.33
2023-10-28T00:23:37.354Z,2.05
2023-10-28T00:28:43.895Z,0.77
2023-10-28T00:33:45.981Z,5.85
2023-10-28T00:38:48.029Z,1.30
2023-10-28T00:43:50.358Z,3.88
2023-10-28T00:48:54.475Z,1.48
2023-10-28T00:53:57.120Z,2.28
2023-10-28T00:58:59.824Z,4.43
2023-10-28T01:04:01.610Z,1.80
2023-10-28T01:09:03.556Z,6.88
2023-10-28T01:14:05.636Z,1.38
2023-10-28T01:19:07.734Z,1.33
2023-10-28T01:24:14.334Z,4.43
2023-10-28T01:29:16.430Z,4.72
2023-10-28T01:34:23.130Z,1.40
2023-10-28T01:39:25.226Z,3.72
2023-10-28T01:44:27.061Z,4.95
2023-10-28T01:49:29.162Z,5.35
2023-10-28T01:54:34.856Z,6.13
2023-10-28T01:59:38.626Z,4.47
2023-10-28T02:04:42.987Z,6.10
2023-10-28T02:09:45.167Z,3.85
2023-10-28T02:14:47.489Z,5.30
2023-10-28T02:19:51.502Z,5.07
2023-10-28T02:24:53.393Z,2.72
2023-10-28T02:29:55.496Z,2.95
2023-10-28T02:34:57.411Z,5.70
2023-10-28T02:39:59.311Z,4.93
2023-10-28T02:45:01.193Z,3.88
2023-10-28T02:50:03.274Z,5.90
2023-10-28T02:55:06.980Z,2.80
2023-10-28T03:00:12.583Z,1.95
2023-10-28T03:05:16.842Z,2.28
2023-10-28T03:10:18.712Z,6.82
2023-10-28T03:15:23.243Z,5.00
2023-10-28T03:20:25.252Z,3.50
2023-10-28T03:25:29.946Z,11.50
2023-10-28T03:30:32.215Z,5.22
2023-10-28T03:35:34.171Z,3.65
2023-10-28T03:40:38.221Z,1.60
2023-10-28T03:45:40.121Z,4.57
2023-10-28T03:50:42.298Z,1.65
2023-10-28T03:55:44.776Z,3.53
2023-10-28T04:00:47.463Z,1.00
2023-10-28T04:05:52.546Z,10.13
2023-10-28T04:10:56.732Z,4.57
2023-10-28T04:15:58.762Z,8.38
2023-10-28T04:21:00.726Z,2.92
2023-10-28T04:26:05.389Z,1.23
2023-10-28T04:31:07.796Z,2.20
2023-10-28T04:36:11.115Z,12.77
2023-10-28T04:41:13.016Z,5.60
2023-10-28T04:46:17.217Z,5.43
2023-10-28T04:51:19.007Z,4.88
2023-10-28T04:56:20.759Z,4.65
2023-10-28T05:01:22.752Z,3.30
2023-10-28T05:06:25.046Z,4.82
2023-10-28T05:11:26.999Z,5.22
2023-10-28T05:16:31.195Z,5.57
2023-10-28T05:21:35.543Z,3.47
2023-10-28T05:26:39.972Z,4.68
2023-10-28T05:31:46.825Z,5.95
2023-10-28T05:36:48.783Z,5.03
2023-10-28T05:41:50.589Z,5.38
2023-10-28T05:46:52.631Z,8.85
2023-10-28T05:51:57.050Z,4.10
2023-10-28T05:56:59.494Z,6.53
2023-10-28T06:02:03.466Z,3.03
2023-10-28T06:07:05.503Z,3.63
2023-10-28T06:12:10.012Z,11.63
2023-10-28T06:17:14.727Z,5.07
2023-10-28T06:22:16.677Z,5.93
2023-10-28T06:27:18.513Z,7.22
2023-10-28T06:32:20.431Z,5.25
2023-10-28T06:37:22.722Z,4.57
2023-10-28T06:42:25.586Z,8.02
2023-10-28T06:47:27.450Z,7.53
2023-10-28T06:52:29.424Z,3.25
2023-10-28T06:57:32.097Z,7.93
2023-10-28T07:02:34.803Z,10.18
2023-10-28T07:07:40.098Z,4.97
2023-10-28T07:12:43.176Z,3.22
2023-10-28T07:17:45.151Z,8.35
2023-10-28T07:22:50.722Z,4.03
2023-10-28T07:27:52.708Z,10.07
2023-10-28T07:32:54.732Z,2.33
2023-10-28T07:37:56.818Z,3.70
2023-10-28T07:42:58.712Z,3.15
2023-10-28T07:48:02.942Z,7.53
2023-10-28T07:53:08.361Z,2.20
2023-10-28T07:58:13.502Z,5.43
2023-10-28T08:03:18.800Z,5.60
2023-10-28T08:08:23.155Z,5.93
2023-10-28T08:13:25.214Z,7.75
2023-10-28T08:18:26.962Z,6.53
2023-10-28T08:23:31.863Z,6.10
2023-10-28T08:28:34.150Z,3.63
2023-10-28T08:33:37.205Z,3.70
2023-10-28T08:38:39.621Z,3.05
2023-10-28T08:43:43.069Z,4.70
2023-10-28T08:48:52.741Z,6.68
2023-10-28T08:53:58.646Z,4.93
2023-10-28T08:59:00.515Z,6.75
2023-10-28T09:04:06.062Z,4.00
2023-10-28T09:09:13.915Z,6.60
2023-10-28T09:14:16.005Z,6.13
2023-10-28T09:19:23.259Z,1.80
2023-10-28T09:29:31.876Z,11.40
2023-10-28T09:34:41.342Z,7.75
2023-10-28T09:39:49.015Z,2.55
2023-10-28T09:44:51.218Z,5.60
2023-10-28T09:50:01.070Z,5.22
2023-10-28T09:55:08.896Z,2.42
2023-10-28T10:00:24.971Z,4.47
2023-10-28T10:05:34.509Z,5.13
2023-10-28T10:10:46.889Z,0.95
2023-10-28T10:16:13.151Z,8.60
2023-10-28T10:21:20.178Z,12.15
2023-10-28T10:26:31.882Z,1.83
2023-10-28T10:31:36.684Z,6.85
2023-10-28T10:36:46.993Z,3.90
2023-10-28T10:42:00.513Z,3.90
2023-10-28T10:47:06.521Z,9.23
2023-10-28T10:52:09.936Z,6.70
2023-10-28T10:57:11.968Z,3.40
2023-10-28T11:02:14.040Z,1.45
2023-10-28T11:07:18.194Z,3.25
2023-10-28T11:12:24.591Z,3.75
2023-10-28T11:17:27.133Z,7.53
2023-10-28T11:22:29.093Z,13.07
2023-10-28T11:27:35.260Z,8.98
2023-10-28T11:32:43.759Z,4.90
2023-10-28T11:37:45.656Z,6.05
2023-10-28T11:42:47.716Z,7.95
2023-10-28T11:47:49.602Z,9.55
2023-10-28T11:52:51.412Z,4.70
2023-10-28T11:57:53.293Z,4.97
2023-10-28T12:02:55.285Z,4.30
2023-10-28T12:07:59.552Z,8.43
2023-10-28T12:13:02.737Z,6.90
2023-10-28T12:18:10.842Z,7.65
2023-10-28T12:23:14.957Z,3.92
2023-10-28T12:28:17.078Z,8.02
2023-10-28T12:33:19.108Z,7.05
2023-10-28T12:38:20.997Z,6.72
2023-10-28T12:43:22.973Z,8.95
2023-10-28T12:48:27.659Z,6.95
2023-10-28T12:53:32.600Z,9.32
2023-10-28T12:58:35.011Z,7.53
2023-10-28T13:03:37.292Z,7.07
2023-10-28T13:08:39.205Z,5.00
2023-10-28T13:13:41.317Z,5.25
2023-10-28T13:18:43.611Z,7.85
2023-10-28T13:23:45.713Z,3.90
2023-10-28T13:28:51.261Z,5.55
2023-10-28T13:33:53.243Z,7.32
2023-10-28T13:38:55.315Z,7.30
2023-10-28T13:43:57.219Z,10.45
2023-10-28T13:48:58.966Z,4.72
2023-10-28T13:54:00.890Z,4.95
2023-10-28T13:59:06.128Z,2.50
2023-10-28T14:04:09.317Z,3.67
2023-10-28T14:09:11.458Z,3.97
2023-10-28T14:14:14.933Z,7.47
2023-10-28T14:19:16.740Z,8.40
2023-10-28T14:24:20.890Z,7.22
2023-10-28T14:29:25.197Z,11.98
2023-10-28T14:34:27.789Z,6.93
2023-10-28T14:39:30.213Z,13.32
2023-10-28T14:44:35.996Z,18.58
2023-10-28T14:49:37.771Z,10.00
2023-10-28T14:54:39.544Z,6.28
2023-10-28T14:59:48.430Z,9.38
2023-10-28T15:04:53.200Z,3.15
2023-10-28T15:09:55.021Z,4.28
2023-10-28T15:14:57.000Z,3.00
2023-10-28T15:20:00.446Z,5.50
2023-10-28T15:25:02.690Z,3.95
2023-10-28T15:30:12.522Z,4.03
2023-10-28T15:35:14.432Z,4.63
2023-10-28T15:40:20.610Z,5.50
2023-10-28T15:45:24.648Z,1.45
2023-10-28T15:50:26.742Z,14.20
2023-10-28T15:55:29.294Z,1.75
2023-10-28T16:00:33.780Z,0.60
2023-10-28T16:05:37.724Z,2.70
2023-10-28T16:10:39.585Z,4.10
2023-10-28T16:15:44.168Z,2.72
2023-10-28T16:20:46.844Z,5.78
2023-10-28T16:25:48.663Z,5.72
2023-10-28T16:30:51.058Z,0.10
2023-10-28T16:35:53.903Z,4.22
2023-10-28T16:40:59.307Z,2.10
2023-10-28T16:46:02.110Z,5.25
2023-10-28T16:51:13.254Z,6.55
2023-10-28T16:56:17.802Z,4.20
2023-10-28T17:01:19.754Z,2.70
2023-10-28T17:06:21.646Z,2.63
2023-10-28T17:11:29.011Z,1.98
2023-10-28T17:16:32.064Z,4.95
2023-10-28T17:21:34.173Z,7.95
2023-10-28T17:26:36.555Z,5.32
2023-10-28T17:31:39.003Z,8.57
2023-10-28T17:36:41.103Z,2.95
2023-10-28T17:41:46.308Z,6.43
2023-10-28T17:46:49.726Z,2.70
2023-10-28T17:51:54.053Z,17.80
2023-10-28T17:57:02.552Z,10.30
2023-10-28T18:02:04.662Z,13.20
2023-10-28T18:07:09.327Z,9.13
2023-10-28T18:17:39.078Z,10.48
2023-10-28T18:22:41.198Z,18.05
2023-10-28T18:27:43.346Z,16.00
2023-10-28T18:32:47.692Z,13.23
2023-10-28T18:37:52.029Z,3.95
2023-10-28T18:42:54.644Z,6.93
2023-10-28T18:47:58.402Z,6.05
2023-10-28T18:53:02.977Z,16.00
2023-10-28T18:58:06.459Z,14.90
2023-10-28T19:03:13.212Z,12.27
2023-10-28T19:08:15.866Z,10.25
2023-10-28T19:13:18.164Z,9.73
2023-10-28T19:18:20.621Z,13.40
2023-10-28T19:23:23.247Z,12.75
2023-10-28T19:28:25.689Z,17.77
2023-10-28T19:33:30.200Z,15.75
2023-10-28T19:38:36.887Z,8.95
2023-10-28T19:43:39.459Z,10.35
2023-10-28T19:48:43.209Z,8.65
2023-10-28T19:53:46.679Z,31.92
2023-10-28T19:58:48.510Z,23.38
2023-10-28T20:03:51.657Z,15.43
2023-10-28T20:08:53.827Z,16.00
2023-10-28T20:13:57.732Z,11.35
2023-10-28T20:18:59.840Z,16.98
2023-10-28T20:24:01.978Z,11.63
2023-10-28T20:29:04.613Z,13.48
2023-10-28T20:34:09.251Z,17.83
2023-10-28T20:39:11.139Z,13.40
2023-10-28T20:44:13.071Z,17.90
2023-10-28T20:49:14.934Z,20.73
2023-10-28T20:54:16.943Z,12.85
2023-10-28T20:59:21.115Z,10.23
2023-10-28T21:04:23.082Z,10.82
2023-10-28T21:09:25.261Z,17.48
2023-10-28T21:27:08.811Z,24.73
2023-10-28T21:32:11.030Z,19.67
2023-10-28T21:37:14.469Z,12.55
2023-10-28T21:42:19.114Z,13.82
2023-10-28T21:52:41.931Z,15.70
2023-10-28T21:57:44.397Z,14.95
2023-10-28T22:02:49.259Z,15.48
2023-10-28T22:07:52.275Z,11.80
2023-10-28T22:12:54.841Z,17.55
2023-10-28T22:17:57.221Z,9.82
2023-10-28T22:22:59.836Z,8.10
2023-10-28T22:28:14.083Z,9.60
2023-10-28T22:33:17.797Z,5.40
2023-10-28T22:38:20.610Z,5.78
2023-10-28T22:43:23.682Z,5.13
2023-10-28T22:48:26.037Z,8.57
2023-10-28T22:53:29.114Z,8.00
2023-10-28T22:58:31.477Z,6.38
2023-10-28T23:03:34.383Z,9.80
2023-10-28T23:08:37.043Z,8.93
2023-10-28T23:13:39.536Z,4.25
2023-10-28T23:18:41.820Z,8.65
2023-10-28T23:23:44.560Z,8.18
2023-10-28T23:28:47.666Z,4.05
2023-10-28T23:33:51.060Z,5.45
2023-10-28T23:38:53.560Z,10.82
2023-10-28T23:43:56.566Z,7.93
2023-10-28T23:48:59.170Z,5.78
2023-10-28T23:54:01.470Z,2.63
2023-10-28T23:59:04.486Z,8.25
